sensor_id;sensor_type;location;lat;lon;timestamp;pressure;altitude;pressure_sealevel;temperature;humidity
61136;BME280;47021;51.340;12.432;2023-03-13T10:55:00;98658.50;;;16.55;59.54
61136;BME280;47021;51.340;12.432;2023-03-13T11:08:28;98628.69;;;17.14;58.62
61136;BME280;47021;51.340;12.432;2023-03-13T11:11:18;98619.38;;;17.82;56.81
61136;BME280;47021;51.340;12.432;2023-03-13T11:16:45;98599.38;;;17.54;57.21
61136;BME280;47021;51.340;12.432;2023-03-13T11:41:07;98564.91;;;18.50;55.20
61136;BME280;47021;51.340;12.432;2023-03-13T11:46:05;98565.69;;;19.18;53.79
61136;BME280;47021;51.340;12.432;2023-03-13T11:48:43;98554.22;;;19.06;53.82
61136;BME280;47021;51.340;12.432;2023-03-13T12:24:32;98544.25;;;20.15;50.68
61136;BME280;47021;51.340;12.432;2023-03-13T12:32:19;98541.38;;;20.46;50.69
61136;BME280;47021;51.340;12.432;2023-03-13T12:40:09;98520.25;;;20.39;50.33
61136;BME280;47021;51.340;12.432;2023-03-13T12:45:32;98503.81;;;21.24;48.06
61136;BME280;47021;51.340;12.432;2023-03-13T13:00:44;98485.88;;;20.79;49.47
61136;BME280;47021;51.340;12.432;2023-03-13T13:03:33;98493.16;;;20.49;49.52
61136;BME280;47021;51.340;12.432;2023-03-13T13:16:40;98494.41;;;20.23;50.44
61136;BME280;47021;51.340;12.432;2023-03-13T13:24:46;98486.88;;;20.09;50.63
61136;BME280;47021;51.340;12.432;2023-03-13T13:32:55;98470.19;;;20.89;49.58
61136;BME280;47021;51.340;12.432;2023-03-13T13:43:41;98471.91;;;20.72;49.86
61136;BME280;47021;51.340;12.432;2023-03-13T13:54:01;98464.22;;;20.24;50.99
61136;BME280;47021;51.340;12.432;2023-03-13T14:01:48;98472.56;;;19.87;52.11
61136;BME280;47021;51.340;12.432;2023-03-13T14:06:58;98456.09;;;20.08;51.12
61136;BME280;47021;51.340;12.432;2023-03-13T14:14:46;98446.72;;;20.35;50.56
61136;BME280;47021;51.340;12.432;2023-03-13T14:17:12;98442.31;;;20.29;50.83
61136;BME280;47021;51.340;12.432;2023-03-13T14:19:43;98434.78;;;20.61;50.07
61136;BME280;47021;51.340;12.432;2023-03-13T14:22:11;98424.38;;;20.82;49.59
61136;BME280;47021;51.340;12.432;2023-03-13T14:27:19;98422.97;;;20.91;49.16
61136;BME280;47021;51.340;12.432;2023-03-13T14:32:37;98426.59;;;19.93;51.67
61136;BME280;47021;51.340;12.432;2023-03-13T14:35:03;98425.56;;;20.63;49.83
61136;BME280;47021;51.340;12.432;2023-03-13T14:37:42;98417.84;;;20.15;50.60
61136;BME280;47021;51.340;12.432;2023-03-13T14:40:29;98423.06;;;20.22;50.81
61136;BME280;47021;51.340;12.432;2023-03-13T14:42:57;98431.34;;;19.49;52.54
61136;BME280;47021;51.340;12.432;2023-03-13T14:45:31;98410.94;;;19.91;51.18
61136;BME280;47021;51.340;12.432;2023-03-13T14:47:59;98429.50;;;20.14;51.28
61136;BME280;47021;51.340;12.432;2023-03-13T14:50:25;98413.03;;;20.24;51.12
61136;BME280;47021;51.340;12.432;2023-03-13T14:53:01;98405.53;;;19.98;51.22
61136;BME280;47021;51.340;12.432;2023-03-13T14:55:33;98410.00;;;19.97;51.49
61136;BME280;47021;51.340;12.432;2023-03-13T14:58:01;98412.66;;;20.09;51.35
61136;BME280;47021;51.340;12.432;2023-03-13T15:00:37;98415.44;;;20.14;50.63
61136;BME280;47021;51.340;12.432;2023-03-13T15:03:22;98410.84;;;20.21;50.75
61136;BME280;47021;51.340;12.432;2023-03-13T15:05:48;98404.16;;;20.53;50.11
61136;BME280;47021;51.340;12.432;2023-03-13T15:08:28;98397.75;;;20.77;49.59
61136;BME280;47021;51.340;12.432;2023-03-13T15:10:55;98399.94;;;20.80;49.37
61136;BME280;47021;51.340;12.432;2023-03-13T15:13:31;98399.94;;;21.20;49.11
61136;BME280;47021;51.340;12.432;2023-03-13T15:15:59;98394.50;;;21.27;48.28
61136;BME280;47021;51.340;12.432;2023-03-13T15:18:25;98388.84;;;21.23;48.45
61136;BME280;47021;51.340;12.432;2023-03-13T15:20:54;98397.22;;;21.03;49.04
61136;BME280;47021;51.340;12.432;2023-03-13T15:23:21;98385.19;;;20.73;49.28
61136;BME280;47021;51.340;12.432;2023-03-13T15:25:47;98382.94;;;20.93;49.47
61136;BME280;47021;51.340;12.432;2023-03-13T15:28:15;98383.78;;;20.30;50.14
61136;BME280;47021;51.340;12.432;2023-03-13T15:30:56;98368.44;;;20.32;50.39
61136;BME280;47021;51.340;12.432;2023-03-13T15:33:25;98370.50;;;20.82;49.83
61136;BME280;47021;51.340;12.432;2023-03-13T15:35:53;98368.88;;;20.41;50.64
61136;BME280;47021;51.340;12.432;2023-03-13T15:38:21;98367.59;;;20.20;50.88
61136;BME280;47021;51.340;12.432;2023-03-13T15:43:34;98359.22;;;20.12;51.37
61136;BME280;47021;51.340;12.432;2023-03-13T15:46:12;98345.03;;;20.18;51.39
61136;BME280;47021;51.340;12.432;2023-03-13T15:48:43;98342.25;;;19.90;51.64
61136;BME280;47021;51.340;12.432;2023-03-13T15:51:09;98327.63;;;20.22;51.07
61136;BME280;47021;51.340;12.432;2023-03-13T15:53:43;98329.03;;;20.24;51.28
61136;BME280;47021;51.340;12.432;2023-03-13T15:56:15;98328.88;;;20.31;51.20
61136;BME280;47021;51.340;12.432;2023-03-13T15:58:56;98318.03;;;20.44;51.09
61136;BME280;47021;51.340;12.432;2023-03-13T16:04:19;98303.03;;;20.50;50.65
61136;BME280;47021;51.340;12.432;2023-03-13T16:06:52;98301.47;;;20.65;50.10
61136;BME280;47021;51.340;12.432;2023-03-13T16:09:17;98295.69;;;20.68;50.37
61136;BME280;47021;51.340;12.432;2023-03-13T16:11:43;98288.72;;;20.79;49.87
61136;BME280;47021;51.340;12.432;2023-03-13T16:14:09;98286.47;;;20.99;49.92
61136;BME280;47021;51.340;12.432;2023-03-13T16:16:36;98271.47;;;21.38;48.52
61136;BME280;47021;51.340;12.432;2023-03-13T16:19:02;98262.03;;;21.14;49.17
61136;BME280;47021;51.340;12.432;2023-03-13T16:21:42;98257.94;;;21.23;49.14
61136;BME280;47021;51.340;12.432;2023-03-13T16:24:10;98252.25;;;20.86;49.78
61136;BME280;47021;51.340;12.432;2023-03-13T16:26:53;98241.75;;;20.63;50.43
61136;BME280;47021;51.340;12.432;2023-03-13T16:29:26;98226.22;;;20.55;50.44
61136;BME280;47021;51.340;12.432;2023-03-13T16:31:54;98233.00;;;20.79;49.98
61136;BME280;47021;51.340;12.432;2023-03-13T16:34:30;98227.03;;;20.55;50.24
61136;BME280;47021;51.340;12.432;2023-03-13T16:37:10;98237.06;;;20.25;51.00
61136;BME280;47021;51.340;12.432;2023-03-13T16:39:49;98232.38;;;19.81;52.32
61136;BME280;47021;51.340;12.432;2023-03-13T16:42:14;98233.78;;;19.37;53.26
61136;BME280;47021;51.340;12.432;2023-03-13T16:47:37;98228.72;;;19.70;52.69
61136;BME280;47021;51.340;12.432;2023-03-13T16:52:52;98224.56;;;19.51;53.01
61136;BME280;47021;51.340;12.432;2023-03-13T16:55:19;98227.69;;;19.59;53.42
61136;BME280;47021;51.340;12.432;2023-03-13T16:57:46;98229.66;;;19.64;53.47
61136;BME280;47021;51.340;12.432;2023-03-13T17:00:13;98221.78;;;19.92;52.85
61136;BME280;47021;51.340;12.432;2023-03-13T17:02:39;98221.59;;;19.47;53.57
61136;BME280;47021;51.340;12.432;2023-03-13T17:05:06;98224.44;;;19.57;53.81
61136;BME280;47021;51.340;12.432;2023-03-13T17:10:25;98227.22;;;19.62;53.70
61136;BME280;47021;51.340;12.432;2023-03-13T17:12:51;98218.78;;;19.31;54.13
61136;BME280;47021;51.340;12.432;2023-03-13T17:15:16;98217.31;;;19.58;53.34
61136;BME280;47021;51.340;12.432;2023-03-13T17:17:44;98221.03;;;19.57;53.26
61136;BME280;47021;51.340;12.432;2023-03-13T17:20:13;98214.91;;;19.45;53.72
61136;BME280;47021;51.340;12.432;2023-03-13T17:25:28;98207.88;;;19.27;54.62
61136;BME280;47021;51.340;12.432;2023-03-13T17:27:55;98211.56;;;19.61;53.44
61136;BME280;47021;51.340;12.432;2023-03-13T17:30:21;98209.03;;;19.31;54.01
61136;BME280;47021;51.340;12.432;2023-03-13T17:32:54;98210.84;;;19.19;54.22
61136;BME280;47021;51.340;12.432;2023-03-13T17:35:20;98212.50;;;19.43;53.96
61136;BME280;47021;51.340;12.432;2023-03-13T17:37:52;98201.81;;;19.38;53.99
61136;BME280;47021;51.340;12.432;2023-03-13T17:40:30;98198.50;;;18.90;55.46
61136;BME280;47021;51.340;12.432;2023-03-13T17:42:55;98199.03;;;19.45;53.85
61136;BME280;47021;51.340;12.432;2023-03-13T17:45:20;98205.44;;;19.26;54.32
61136;BME280;47021;51.340;12.432;2023-03-13T17:50:30;98209.81;;;19.66;53.65
61136;BME280;47021;51.340;12.432;2023-03-13T17:52:55;98204.09;;;19.58;53.27
61136;BME280;47021;51.340;12.432;2023-03-13T17:55:21;98201.31;;;19.18;54.26
61136;BME280;47021;51.340;12.432;2023-03-13T17:57:46;98183.75;;;18.82;55.84
61136;BME280;47021;51.340;12.432;2023-03-13T18:03:02;98179.69;;;18.09;57.53
61136;BME280;47021;51.340;12.432;2023-03-13T18:05:28;98160.16;;;18.28;57.01
61136;BME280;47021;51.340;12.432;2023-03-13T18:07:56;98153.56;;;18.49;56.02
61136;BME280;47021;51.340;12.432;2023-03-13T18:10:24;98149.13;;;18.01;56.80
61136;BME280;47021;51.340;12.432;2023-03-13T18:12:50;98123.38;;;18.26;55.98
61136;BME280;47021;51.340;12.432;2023-03-13T18:17:59;98110.16;;;18.91;54.76
61136;BME280;47021;51.340;12.432;2023-03-13T18:20:30;98109.47;;;18.19;54.97
61136;BME280;47021;51.340;12.432;2023-03-13T18:22:55;98074.53;;;17.88;54.17
61136;BME280;47021;51.340;12.432;2023-03-13T18:25:21;98073.50;;;18.18;53.75
61136;BME280;47021;51.340;12.432;2023-03-13T18:27:55;98083.81;;;18.50;51.68
61136;BME280;47021;51.340;12.432;2023-03-13T18:30:22;98106.28;;;18.41;52.35
61136;BME280;47021;51.340;12.432;2023-03-13T18:32:53;98106.44;;;18.16;52.71
61136;BME280;47021;51.340;12.432;2023-03-13T18:35:21;98106.94;;;18.24;51.87
61136;BME280;47021;51.340;12.432;2023-03-13T18:40:30;98085.06;;;18.06;52.26
61136;BME280;47021;51.340;12.432;2023-03-13T18:42:55;98079.69;;;18.12;52.03
61136;BME280;47021;51.340;12.432;2023-03-13T18:48:05;98081.91;;;17.97;52.55
61136;BME280;47021;51.340;12.432;2023-03-13T18:50:33;98096.47;;;18.18;52.13
61136;BME280;47021;51.340;12.432;2023-03-13T18:53:04;98118.00;;;17.74;53.17
61136;BME280;47021;51.340;12.432;2023-03-13T18:55:30;98091.28;;;18.11;52.59
61136;BME280;47021;51.340;12.432;2023-03-13T19:00:40;98080.72;;;18.64;51.05
61136;BME280;47021;51.340;12.432;2023-03-13T19:03:08;98096.06;;;18.32;51.88
61136;BME280;47021;51.340;12.432;2023-03-13T19:05:46;98106.22;;;17.88;52.98
61136;BME280;47021;51.340;12.432;2023-03-13T19:08:23;98114.81;;;18.01;52.79
61136;BME280;47021;51.340;12.432;2023-03-13T19:10:49;98126.28;;;18.07;53.04
61136;BME280;47021;51.340;12.432;2023-03-13T19:13:21;98131.75;;;18.23;52.59
61136;BME280;47021;51.340;12.432;2023-03-13T19:20:58;98146.34;;;18.26;53.44
61136;BME280;47021;51.340;12.432;2023-03-13T19:23:32;98147.84;;;18.22;53.51
61136;BME280;47021;51.340;12.432;2023-03-13T19:28:41;98147.56;;;17.64;55.08
61136;BME280;47021;51.340;12.432;2023-03-13T19:31:09;98143.16;;;17.76;55.29
61136;BME280;47021;51.340;12.432;2023-03-13T19:33:40;98153.59;;;17.04;56.36
61136;BME280;47021;51.340;12.432;2023-03-13T19:36:21;98147.91;;;17.68;54.85
61136;BME280;47021;51.340;12.432;2023-03-13T19:38:48;98137.88;;;17.76;54.80
61136;BME280;47021;51.340;12.432;2023-03-13T19:41:20;98142.63;;;17.68;55.02
61136;BME280;47021;51.340;12.432;2023-03-13T19:43:47;98135.66;;;17.37;55.68
61136;BME280;47021;51.340;12.432;2023-03-13T19:48:50;98126.63;;;17.44;54.98
61136;BME280;47021;51.340;12.432;2023-03-13T19:51:22;98115.72;;;17.41;54.74
61136;BME280;47021;51.340;12.432;2023-03-13T19:53:51;98104.34;;;17.40;54.59
61136;BME280;47021;51.340;12.432;2023-03-13T19:56:19;98110.75;;;17.51;54.76
61136;BME280;47021;51.340;12.432;2023-03-13T19:59:00;98105.44;;;17.87;53.78
61136;BME280;47021;51.340;12.432;2023-03-13T20:01:25;98112.66;;;17.62;54.36
61136;BME280;47021;51.340;12.432;2023-03-13T20:03:53;98109.72;;;17.52;54.40
61136;BME280;47021;51.340;12.432;2023-03-13T20:06:22;98103.91;;;17.43;54.42
61136;BME280;47021;51.340;12.432;2023-03-13T20:08:51;98103.81;;;17.50;54.34
61136;BME280;47021;51.340;12.432;2023-03-13T20:11:17;98093.78;;;17.40;54.38
61136;BME280;47021;51.340;12.432;2023-03-13T20:13:42;98104.00;;;17.55;54.44
61136;BME280;47021;51.340;12.432;2023-03-13T20:16:18;98102.72;;;17.21;54.73
61136;BME280;47021;51.340;12.432;2023-03-13T20:18:43;98100.16;;;17.33;54.54
61136;BME280;47021;51.340;12.432;2023-03-13T20:21:11;98108.34;;;17.07;55.42
61136;BME280;47021;51.340;12.432;2023-03-13T20:23:36;98097.75;;;17.49;54.55
61136;BME280;47021;51.340;12.432;2023-03-13T20:26:04;98080.25;;;17.55;53.83
61136;BME280;47021;51.340;12.432;2023-03-13T20:28:30;98070.19;;;17.45;54.33
61136;BME280;47021;51.340;12.432;2023-03-13T20:33:45;98064.75;;;17.22;54.99
61136;BME280;47021;51.340;12.432;2023-03-13T20:36:17;98068.78;;;17.43;54.02
61136;BME280;47021;51.340;12.432;2023-03-13T20:38:45;98054.94;;;17.11;55.28
61136;BME280;47021;51.340;12.432;2023-03-13T20:41:12;98060.31;;;17.05;55.24
61136;BME280;47021;51.340;12.432;2023-03-13T20:43:55;98064.31;;;16.64;55.83
61136;BME280;47021;51.340;12.432;2023-03-13T20:46:21;98064.75;;;17.04;55.59
61136;BME280;47021;51.340;12.432;2023-03-13T20:48:46;98080.13;;;16.89;55.98
61136;BME280;47021;51.340;12.432;2023-03-13T20:51:24;98077.13;;;16.85;55.91
61136;BME280;47021;51.340;12.432;2023-03-13T20:54:08;98080.44;;;16.99;55.72
61136;BME280;47021;51.340;12.432;2023-03-13T20:56:43;98086.00;;;17.09;55.99
61136;BME280;47021;51.340;12.432;2023-03-13T20:59:21;98100.94;;;17.15;55.56
61136;BME280;47021;51.340;12.432;2023-03-13T21:01:46;98091.56;;;17.01;56.07
61136;BME280;47021;51.340;12.432;2023-03-13T21:04:11;98095.75;;;17.09;56.12
61136;BME280;47021;51.340;12.432;2023-03-13T21:06:38;98105.03;;;16.93;56.23
61136;BME280;47021;51.340;12.432;2023-03-13T21:09:12;98116.34;;;17.18;55.86
61136;BME280;47021;51.340;12.432;2023-03-13T21:11:55;98114.28;;;17.02;56.73
61136;BME280;47021;51.340;12.432;2023-03-13T21:14:21;98133.84;;;16.39;59.28
61136;BME280;47021;51.340;12.432;2023-03-13T21:16:55;98123.16;;;16.58;58.76
61136;BME280;47021;51.340;12.432;2023-03-13T21:19:21;98138.22;;;16.51;60.07
61136;BME280;47021;51.340;12.432;2023-03-13T21:22:00;98137.19;;;16.46;60.36
61136;BME280;47021;51.340;12.432;2023-03-13T21:24:26;98126.38;;;16.29;61.29
61136;BME280;47021;51.340;12.432;2023-03-13T21:26:51;98131.72;;;16.16;61.90
61136;BME280;47021;51.340;12.432;2023-03-13T21:29:24;98130.69;;;16.48;61.32
61136;BME280;47021;51.340;12.432;2023-03-13T21:31:50;98127.19;;;16.30;61.96
61136;BME280;47021;51.340;12.432;2023-03-13T21:34:33;98135.25;;;16.35;61.67
61136;BME280;47021;51.340;12.432;2023-03-13T21:36:59;98143.84;;;16.55;60.97
61136;BME280;47021;51.340;12.432;2023-03-13T21:39:35;98140.84;;;16.13;62.24
61136;BME280;47021;51.340;12.432;2023-03-13T21:42:13;98142.38;;;16.27;61.82
61136;BME280;47021;51.340;12.432;2023-03-13T21:44:45;98135.25;;;16.35;61.96
61136;BME280;47021;51.340;12.432;2023-03-13T21:47:19;98120.59;;;16.14;62.15
61136;BME280;47021;51.340;12.432;2023-03-13T21:49:45;98126.78;;;15.88;63.31
61136;BME280;47021;51.340;12.432;2023-03-13T21:52:11;98120.31;;;16.29;62.30
61136;BME280;47021;51.340;12.432;2023-03-13T21:54:55;98110.84;;;16.46;62.34
61136;BME280;47021;51.340;12.432;2023-03-13T21:57:21;98109.50;;;16.05;63.89
61136;BME280;47021;51.340;12.432;2023-03-13T21:59:47;98115.97;;;16.41;62.90
61136;BME280;47021;51.340;12.432;2023-03-13T22:02:13;98104.69;;;16.34;62.71
61136;BME280;47021;51.340;12.432;2023-03-13T22:04:40;98094.47;;;15.75;65.21
61136;BME280;47021;51.340;12.432;2023-03-13T22:07:13;98088.91;;;15.96;64.09
61136;BME280;47021;51.340;12.432;2023-03-13T22:09:40;98088.88;;;15.65;65.08
61136;BME280;47021;51.340;12.432;2023-03-13T22:12:05;98081.34;;;15.68;65.52
61136;BME280;47021;51.340;12.432;2023-03-13T22:14:38;98061.97;;;15.63;65.82
61136;BME280;47021;51.340;12.432;2023-03-13T22:17:15;98044.03;;;15.33;66.41
61136;BME280;47021;51.340;12.432;2023-03-13T22:19:43;98018.69;;;14.95;68.07
61136;BME280;47021;51.340;12.432;2023-03-13T22:22:08;97999.47;;;15.01;67.71
61136;BME280;47021;51.340;12.432;2023-03-13T22:24:33;97954.59;;;14.96;68.57
61136;BME280;47021;51.340;12.432;2023-03-13T22:27:00;97899.66;;;14.88;68.67
61136;BME280;47021;51.340;12.432;2023-03-13T22:29:28;97875.50;;;15.10;68.22
61136;BME280;47021;51.340;12.432;2023-03-13T22:32:00;97879.81;;;14.98;67.91
61136;BME280;47021;51.340;12.432;2023-03-13T22:34:34;97877.19;;;15.29;67.28
61136;BME280;47021;51.340;12.432;2023-03-13T22:37:05;97882.75;;;15.08;67.50
61136;BME280;47021;51.340;12.432;2023-03-13T22:39:30;97905.06;;;15.37;67.08
61136;BME280;47021;51.340;12.432;2023-03-13T22:41:56;97901.03;;;14.97;68.34
61136;BME280;47021;51.340;12.432;2023-03-13T22:44:21;97928.59;;;14.74;68.44
61136;BME280;47021;51.340;12.432;2023-03-13T22:46:46;97935.78;;;15.05;67.79
61136;BME280;47021;51.340;12.432;2023-03-13T22:49:11;97949.41;;;14.76;68.72
61136;BME280;47021;51.340;12.432;2023-03-13T22:51:38;97960.69;;;14.96;67.89
61136;BME280;47021;51.340;12.432;2023-03-13T22:54:03;97958.66;;;14.98;67.58
61136;BME280;47021;51.340;12.432;2023-03-13T22:56:28;97949.88;;;15.11;66.53
61136;BME280;47021;51.340;12.432;2023-03-13T22:59:01;97953.03;;;14.81;67.56
61136;BME280;47021;51.340;12.432;2023-03-13T23:01:26;97953.78;;;15.02;66.99
61136;BME280;47021;51.340;12.432;2023-03-13T23:04:01;97962.91;;;15.37;65.72
61136;BME280;47021;51.340;12.432;2023-03-13T23:06:26;97973.66;;;15.35;65.53
61136;BME280;47021;51.340;12.432;2023-03-13T23:08:52;97978.06;;;15.41;65.69
61136;BME280;47021;51.340;12.432;2023-03-13T23:11:24;97995.75;;;15.21;65.67
61136;BME280;47021;51.340;12.432;2023-03-13T23:13:49;97988.06;;;15.26;66.26
61136;BME280;47021;51.340;12.432;2023-03-13T23:16:21;97989.19;;;15.43;65.38
61136;BME280;47021;51.340;12.432;2023-03-13T23:18:47;97979.06;;;15.40;65.47
61136;BME280;47021;51.340;12.432;2023-03-13T23:21:17;97974.16;;;15.06;66.40
61136;BME280;47021;51.340;12.432;2023-03-13T23:23:44;97977.81;;;15.05;66.82
61136;BME280;47021;51.340;12.432;2023-03-13T23:26:11;97975.41;;;14.97;66.94
61136;BME280;47021;51.340;12.432;2023-03-13T23:28:37;97976.44;;;14.96;66.91
61136;BME280;47021;51.340;12.432;2023-03-13T23:31:36;97974.09;;;15.26;65.70
61136;BME280;47021;51.340;12.432;2023-03-13T23:33:56;97975.56;;;15.60;64.53
61136;BME280;47021;51.340;12.432;2023-03-13T23:36:21;97973.28;;;15.63;64.76
61136;BME280;47021;51.340;12.432;2023-03-13T23:38:51;97964.09;;;15.47;65.07
61136;BME280;47021;51.340;12.432;2023-03-13T23:41:31;97965.72;;;15.48;64.75
61136;BME280;47021;51.340;12.432;2023-03-13T23:43:56;97961.91;;;15.76;63.84
61136;BME280;47021;51.340;12.432;2023-03-13T23:49:05;97949.22;;;15.28;65.01
61136;BME280;47021;51.340;12.432;2023-03-13T23:51:31;97943.66;;;15.05;66.24
61136;BME280;47021;51.340;12.432;2023-03-13T23:53:56;97954.53;;;15.09;66.17
61136;BME280;47021;51.340;12.432;2023-03-13T23:56:22;97936.97;;;15.09;66.29
61136;BME280;47021;51.340;12.432;2023-03-13T23:58:48;97929.22;;;15.21;65.81
